Time;durP1;ratioP1;P1;durP2;ratioP2;P2;SDS_P1;SDS_P2;PMS_P1;PMS_P2;Temp;Humidity;BMP_temperature;BMP_pressure;BME280_temperature;BME280_humidity;BME280_pressure;Samples;Min_cycle;Max_cycle;Signal;HPM_P1;HPM_P2
2022/01/01 00:02:07;;;;;;;11.80;9.18;;;;;;;13.40;68.77;98244.03;6026537;23;20143;-82
2022/01/01 00:04:32;;;;;;;13.77;8.68;;;;;;;13.44;68.51;98253.03;5992911;23;20332;-81
2022/01/01 00:06:58;;;;;;;11.20;8.02;;;;;;;13.35;69.07;98252.63;6026891;23;20169;-82
2022/01/01 00:09:23;;;;;;;13.30;8.52;;;;;;;13.21;69.37;98259.94;5992991;23;20652;-82
2022/01/01 00:11:48;;;;;;;11.55;7.88;;;;;;;13.33;68.77;98254.66;6016384;23;20155;-81
2022/01/01 00:14:14;;;;;;;13.68;7.88;;;;;;;13.32;68.76;98253.06;5969629;23;20257;-80
2022/01/01 00:16:39;;;;;;;12.40;8.73;;;;;;;13.27;69.25;98260.81;6027291;23;20166;-82
2022/01/01 00:19:05;;;;;;;12.50;9.40;;;;;;;13.27;69.41;98253.75;5992940;23;20601;-81
2022/01/01 00:21:30;;;;;;;11.35;7.78;;;;;;;13.35;68.92;98251.81;6025846;23;20282;-81
2022/01/01 00:23:55;;;;;;;14.27;9.38;;;;;;;13.44;68.93;98243.34;6017237;23;20262;-81
2022/01/01 00:26:21;;;;;;;14.80;8.98;;;;;;;13.35;68.82;98241.34;5994696;23;20355;-82
2022/01/01 00:28:46;;;;;;;38.00;9.98;;;;;;;13.31;69.31;98241.00;6029073;23;20206;-82
2022/01/01 00:31:12;;;;;;;19.08;9.10;;;;;;;13.37;69.09;98241.91;6028852;23;20170;-82
2022/01/01 00:33:37;;;;;;;24.75;9.75;;;;;;;13.36;68.95;98229.84;6004735;23;20388;-82
2022/01/01 00:36:03;;;;;;;17.63;8.82;;;;;;;13.37;68.93;98239.31;6028532;23;20221;-82
2022/01/01 00:38:29;;;;;;;27.67;10.63;;;;;;;13.36;69.14;98235.09;5995433;23;20190;-82
2022/01/01 00:40:54;;;;;;;20.17;9.57;;;;;;;13.36;69.33;98235.09;6028482;23;20309;-82
2022/01/01 00:43:19;;;;;;;26.27;10.43;;;;;;;13.35;69.02;98230.88;6019115;23;20221;-81
2022/01/01 00:45:45;;;;;;;29.67;10.65;;;;;;;13.40;69.38;98230.97;5995302;23;20210;-81
2022/01/01 00:48:10;;;;;;;21.02;10.48;;;;;;;13.34;69.13;98224.84;5972076;23;20166;-82
2022/01/01 00:50:36;;;;;;;40.47;10.88;;;;;;;13.23;69.33;98228.28;6003902;23;20158;-80
2022/01/01 00:53:02;;;;;;;22.10;9.07;;;;;;;13.34;68.88;98216.22;5994277;23;20710;-81
2022/01/01 00:55:27;;;;;;;30.42;10.80;;;;;;;13.32;69.81;98226.13;5994277;23;20680;-83
2022/01/01 00:57:53;;;;;;;18.02;11.25;;;;;;;13.36;69.34;98216.78;5995060;23;20240;-81
2022/01/01 01:00:18;;;;;;;20.48;10.45;;;;;;;13.39;69.40;98211.88;5970394;23;20297;-82
2022/01/01 01:02:43;;;;;;;39.15;12.50;;;;;;;13.38;69.47;98209.47;5994366;23;20268;-81
2022/01/01 01:05:09;;;;;;;26.50;11.38;;;;;;;13.35;69.06;98202.91;5970825;23;20140;-81
2022/01/01 01:07:34;;;;;;;22.52;11.23;;;;;;;13.42;68.72;98210.63;6004428;23;20578;-81
2022/01/01 01:10:00;;;;;;;27.98;11.27;;;;;;;13.42;69.40;98216.63;6018585;23;20319;-82
2022/01/01 01:12:34;;;;;;;24.58;12.05;;;;;;;13.37;69.07;98213.94;6004213;23;20143;-81
2022/01/01 01:14:59;;;;;;;23.43;12.53;;;;;;;13.46;69.26;98209.09;6005710;23;20583;-81
2022/01/01 01:17:24;;;;;;;18.40;10.60;;;;;;;13.42;68.93;98210.63;6028645;23;20506;-81
2022/01/01 01:19:50;;;;;;;28.58;12.35;;;;;;;13.40;69.44;98217.88;5970474;23;20295;-82
2022/01/01 01:22:15;;;;;;;26.20;12.30;;;;;;;13.45;68.81;98215.34;6004668;23;20193;-81
2022/01/01 01:24:40;;;;;;;19.10;12.57;;;;;;;13.45;69.06;98210.13;6028225;23;20265;-81
2022/01/01 01:27:06;;;;;;;30.85;12.52;;;;;;;13.39;69.03;98205.84;6028108;23;20295;-81
2022/01/01 01:29:36;;;;;;;20.60;11.95;;;;;;;13.42;69.34;98200.94;6028602;23;20181;-81
2022/01/01 01:32:02;;;;;;;22.05;13.25;;;;;;;13.45;69.21;98210.13;5995638;23;20170;-81
2022/01/01 01:34:27;;;;;;;23.67;12.93;;;;;;;13.35;69.58;98208.16;6028044;23;20185;-82
2022/01/01 01:36:52;;;;;;;21.42;11.80;;;;;;;13.43;69.78;98217.41;5970791;23;20276;-81
2022/01/01 01:39:18;;;;;;;20.90;11.98;;;;;;;13.37;69.54;98219.16;5970895;23;20260;-81
2022/01/01 01:41:44;;;;;;;21.38;12.73;;;;;;;13.39;69.91;98209.25;6003860;23;20178;-81
2022/01/01 01:44:31;;;;;;;22.17;12.10;;;;;;;13.23;69.37;98215.22;6019204;23;20648;-81
2022/01/01 01:46:59;;;;;;;20.55;12.38;;;;;;;13.33;69.55;98212.81;5970467;23;20683;-81
2022/01/01 01:49:24;;;;;;;23.17;12.77;;;;;;;13.41;69.71;98215.03;6004725;23;20233;-81
2022/01/01 01:51:49;;;;;;;21.25;12.60;;;;;;;13.44;69.20;98219.78;6027485;23;20312;-81
2022/01/01 01:54:18;;;;;;;25.92;13.23;;;;;;;13.41;69.26;98222.88;5970368;23;20174;-81
2022/01/01 01:56:46;;;;;;;25.10;13.27;;;;;;;13.35;69.29;98217.78;6005070;23;20650;-81
2022/01/01 01:59:13;;;;;;;19.70;11.35;;;;;;;13.36;69.80;98224.63;5991821;23;20147;-81
2022/01/01 02:01:38;;;;;;;25.48;13.48;;;;;;;13.32;69.71;98226.13;6002609;23;20181;-81
2022/01/01 02:04:04;;;;;;;26.58;13.88;;;;;;;13.40;69.33;98229.16;5968212;23;20257;-80
2022/01/01 02:06:29;;;;;;;24.52;13.77;;;;;;;13.39;69.47;98229.41;6003512;23;20241;-81
2022/01/01 02:08:55;;;;;;;23.73;12.57;;;;;;;13.38;69.58;98233.81;6018356;23;20229;-81
2022/01/01 02:11:21;;;;;;;19.17;11.95;;;;;;;13.42;69.36;98234.94;6029381;23;20185;-81
2022/01/01 02:18:47;;;;;;;23.98;12.48;;;;;;;13.45;70.09;98241.50;6027725;23;20589;-81
2022/01/01 02:21:14;;;;;;;18.23;11.23;;;;;;;13.31;70.00;98233.16;5993262;23;20163;-82
2022/01/01 02:23:43;;;;;;;24.80;13.88;;;;;;;13.36;69.71;98230.66;6028011;23;20226;-82
2022/01/01 02:26:11;;;;;;;21.25;12.80;;;;;;;13.48;70.13;98238.44;6028522;23;20426;-82
2022/01/01 02:28:47;;;;;;;26.23;13.52;;;;;;;13.40;69.26;98238.81;6027960;23;20143;-82
2022/01/01 02:31:16;;;;;;;42.35;13.00;;;;;;;13.33;69.93;98235.56;5970050;23;20258;-81
2022/01/01 02:33:42;;;;;;;23.08;12.50;;;;;;;13.46;69.34;98227.41;6027777;23;20166;-82
2022/01/01 02:36:08;;;;;;;44.70;13.85;;;;;;;13.42;69.60;98236.78;5970058;23;20229;-82
2022/01/01 02:38:34;;;;;;;21.08;13.63;;;;;;;13.43;69.77;98236.50;6027691;23;20705;-81
2022/01/01 02:40:59;;;;;;;51.63;14.63;;;;;;;13.32;69.75;98224.31;5993410;23;20252;-82
2022/01/01 02:43:25;;;;;;;22.85;12.35;;;;;;;13.40;69.67;98234.41;5956892;23;20200;-81
2022/01/01 02:45:51;;;;;;;23.08;13.27;;;;;;;13.43;70.07;98225.25;6026875;23;20316;-82
2022/01/01 02:48:17;;;;;;;18.77;11.35;;;;;;;13.38;70.04;98230.41;6027904;23;20245;-81
2022/01/01 02:50:42;;;;;;;19.70;12.18;;;;;;;13.46;69.76;98215.13;6017341;23;20187;-81
2022/01/01 02:53:14;;;;;;;22.92;12.52;;;;;;;13.28;69.93;98221.34;5969292;23;20341;-82
2022/01/01 02:55:40;;;;;;;30.45;13.32;;;;;;;13.38;69.47;98207.66;5969465;23;20349;-82
2022/01/01 02:58:05;;;;;;;22.08;12.98;;;;;;;13.44;69.82;98206.72;6027332;23;20455;-82
2022/01/01 03:00:31;;;;;;;20.52;13.48;;;;;;;13.43;69.71;98212.19;5992533;23;20122;-82
2022/01/01 03:02:56;;;;;;;25.58;12.75;;;;;;;13.39;69.52;98203.22;5992675;23;20166;-82
2022/01/01 03:05:22;;;;;;;19.10;12.63;;;;;;;13.49;69.44;98208.63;6027516;23;20187;-82
2022/01/01 03:07:47;;;;;;;22.80;12.35;;;;;;;13.46;69.52;98201.25;5993841;23;20186;-81
2022/01/01 03:10:13;;;;;;;24.35;12.15;;;;;;;13.49;69.33;98200.78;6003913;23;20260;-82
2022/01/01 03:12:38;;;;;;;21.55;12.88;;;;;;;13.51;69.47;98201.34;5970048;23;20616;-81
2022/01/01 03:15:04;;;;;;;21.60;13.05;;;;;;;13.54;69.30;98198.25;6027648;23;20185;-82
2022/01/01 03:17:29;;;;;;;20.27;14.20;;;;;;;13.56;69.15;98195.41;5993363;23;20222;-82
2022/01/01 03:19:55;;;;;;;23.40;13.60;;;;;;;13.53;69.13;98191.41;6002977;23;20261;-82
2022/01/01 03:22:20;;;;;;;26.45;13.82;;;;;;;13.48;69.15;98181.66;5970238;23;20216;-82
2022/01/01 03:24:45;;;;;;;30.52;13.55;;;;;;;13.42;69.64;98174.78;6027673;23;20174;-81
2022/01/01 03:27:11;;;;;;;21.15;11.45;;;;;;;13.45;69.41;98173.50;6003483;23;20684;-82
2022/01/01 03:29:36;;;;;;;21.67;12.43;;;;;;;13.49;69.01;98177.25;5993591;23;20591;-82
2022/01/01 03:32:02;;;;;;;20.33;11.65;;;;;;;13.47;69.00;98169.63;5970406;23;20270;-82
2022/01/01 03:34:27;;;;;;;20.95;11.90;;;;;;;13.55;69.11;98178.88;5994310;23;20202;-82
2022/01/01 03:36:53;;;;;;;26.92;13.30;;;;;;;13.59;69.07;98190.47;5993838;23;20178;-82
2022/01/01 03:39:18;;;;;;;21.58;13.73;;;;;;;13.61;69.16;98183.16;6027713;23;20127;-82
2022/01/01 03:41:43;;;;;;;22.83;13.40;;;;;;;13.58;69.13;98180.25;6027257;23;20257;-82
2022/01/01 03:44:09;;;;;;;26.42;12.70;;;;;;;13.47;69.16;98192.38;6052000;23;20213;-82
2022/01/01 03:46:34;;;;;;;26.45;14.07;;;;;;;13.54;68.97;98197.44;5993814;23;20173;-81
2022/01/01 03:48:59;;;;;;;24.08;12.95;;;;;;;13.43;69.58;98191.25;5970057;23;20185;-81
2022/01/01 03:51:25;;;;;;;21.73;12.88;;;;;;;13.37;69.50;98197.44;5969542;23;20201;-82
2022/01/01 03:53:50;;;;;;;26.52;14.43;;;;;;;13.41;69.61;98203.78;5974595;23;20433;-81
2022/01/01 03:56:16;;;;;;;22.27;13.07;;;;;;;13.46;69.78;98204.66;6032550;23;20191;-81
2022/01/01 03:58:41;;;;;;;27.30;15.15;;;;;;;13.44;69.26;98204.09;5998609;23;20250;-82
2022/01/01 04:01:07;;;;;;;26.00;13.25;;;;;;;13.39;69.73;98198.00;5976023;23;20198;-82
2022/01/01 04:03:32;;;;;;;31.80;13.95;;;;;;;13.44;69.30;98205.94;6001036;23;20715;-82
2022/01/01 04:05:57;;;;;;;28.65;13.55;;;;;;;13.45;69.68;98200.47;5976931;23;20229;-82
2022/01/01 04:08:23;;;;;;;21.67;13.30;;;;;;;13.51;69.42;98196.09;6010569;23;20143;-82
2022/01/01 04:10:48;;;;;;;29.20;13.93;;;;;;;13.47;69.33;98187.94;6009819;23;20148;-81
2022/01/01 04:13:13;;;;;;;28.17;14.02;;;;;;;13.40;69.00;98179.47;5977232;23;20173;-81
2022/01/01 04:15:41;;;;;;;35.83;14.52;;;;;;;13.40;69.54;98191.72;6024922;23;20175;-82
2022/01/01 04:18:11;;;;;;;23.13;13.45;;;;;;;13.37;69.42;98184.38;6034403;23;20658;-81
2022/01/01 04:20:36;;;;;;;31.70;14.90;;;;;;;13.38;69.55;98193.78;5977094;23;20232;-81
2022/01/01 04:23:08;;;;;;;24.17;13.05;;;;;;;13.23;69.59;98199.53;5976605;23;20320;-82
2022/01/01 04:25:33;;;;;;;25.15;12.98;;;;;;;13.34;69.64;98203.94;6024810;23;20744;-82
2022/01/01 04:27:59;;;;;;;22.58;13.63;;;;;;;13.36;69.65;98208.94;6034119;23;20233;-81
2022/01/01 04:30:25;;;;;;;35.22;14.68;;;;;;;13.30;69.60;98206.19;5976306;23;20523;-82
2022/01/01 04:32:50;;;;;;;40.45;14.63;;;;;;;13.32;69.76;98208.63;6010403;23;20093;-81
2022/01/01 04:35:16;;;;;;;27.80;13.60;;;;;;;13.30;69.52;98216.66;5976675;23;20661;-81
2022/01/01 04:37:41;;;;;;;22.70;13.35;;;;;;;13.34;69.74;98221.47;5976939;23;20629;-82
2022/01/01 04:40:08;;;;;;;47.15;15.32;;;;;;;13.32;69.78;98223.53;5976379;23;20089;-81
2022/01/01 04:42:33;;;;;;;25.63;13.73;;;;;;;13.28;69.96;98221.34;5976573;23;20676;-81
2022/01/01 04:44:59;;;;;;;30.60;14.30;;;;;;;13.38;70.06;98212.09;5976576;23;20268;-81
2022/01/01 04:47:25;;;;;;;28.95;13.82;;;;;;;13.29;69.71;98217.69;5976942;23;20732;-82
2022/01/01 04:49:51;;;;;;;28.58;15.15;;;;;;;13.33;69.81;98206.78;6033636;23;20569;-81
2022/01/01 04:52:16;;;;;;;30.65;14.63;;;;;;;13.42;69.64;98211.41;5976419;23;20053;-82
2022/01/01 04:54:43;;;;;;;22.08;12.93;;;;;;;13.31;69.70;98204.38;6013482;23;20639;-82
2022/01/01 04:57:09;;;;;;;22.92;13.27;;;;;;;13.38;69.76;98199.03;6033994;23;20264;-82
2022/01/01 04:59:35;;;;;;;22.02;13.00;;;;;;;13.46;69.37;98198.63;5999189;23;20237;-82
2022/01/01 05:02:01;;;;;;;20.75;12.55;;;;;;;13.46;69.37;98201.25;6024121;23;20151;-81
2022/01/01 05:04:27;;;;;;;22.45;12.32;;;;;;;13.49;68.82;98200.78;6024696;23;20156;-81
2022/01/01 05:06:52;;;;;;;25.25;13.93;;;;;;;13.42;69.58;98195.69;5999881;23;20234;-82
2022/01/01 05:09:19;;;;;;;20.00;12.20;;;;;;;13.40;68.92;98199.56;6057571;23;20627;-82
2022/01/01 05:11:45;;;;;;;20.85;13.15;;;;;;;13.54;69.21;98207.91;6033323;23;20230;-82
2022/01/01 05:14:10;;;;;;;23.80;14.18;;;;;;;13.46;69.08;98207.28;6024242;23;20122;-81
2022/01/01 05:16:36;;;;;;;29.25;14.40;;;;;;;13.44;69.44;98203.31;6023897;23;20573;-81
2022/01/01 05:19:02;;;;;;;23.20;13.95;;;;;;;13.39;69.50;98211.09;6033603;23;20254;-81
2022/01/01 05:21:31;;;;;;;22.05;13.18;;;;;;;13.42;69.04;98208.00;5999673;23;20167;-81
2022/01/01 05:23:56;;;;;;;23.77;13.63;;;;;;;13.37;69.42;98216.53;6023480;23;20589;-81
2022/01/01 05:26:21;;;;;;;27.23;14.32;;;;;;;13.33;69.53;98212.81;6059888;23;20187;-81
2022/01/01 05:28:49;;;;;;;24.33;13.35;;;;;;;13.39;69.38;98224.94;6023641;23;20692;-82
2022/01/01 05:31:15;;;;;;;23.83;13.55;;;;;;;13.41;69.28;98225.50;6059403;23;20231;-81
2022/01/01 05:33:40;;;;;;;22.15;12.55;;;;;;;13.37;69.62;98213.94;6024037;23;20222;-81
2022/01/01 05:36:06;;;;;;;31.92;15.38;;;;;;;13.31;69.49;98214.84;6057245;23;20196;-82
2022/01/01 05:38:31;;;;;;;22.08;12.70;;;;;;;13.43;69.46;98206.94;6033341;23;20266;-82
2022/01/01 05:40:56;;;;;;;21.85;13.68;;;;;;;13.51;69.04;98214.41;6057095;23;20186;-82
2022/01/01 05:43:22;;;;;;;19.55;13.05;;;;;;;13.54;69.12;98216.56;6023541;23;20167;-81
2022/01/01 05:45:47;;;;;;;22.45;13.00;;;;;;;13.46;69.20;98211.72;6023664;23;20214;-82
2022/01/01 05:48:13;;;;;;;23.60;13.27;;;;;;;13.39;68.90;98216.31;6033424;23;20583;-82
2022/01/01 05:50:38;;;;;;;23.65;11.80;;;;;;;13.38;69.21;98215.50;5999303;23;20245;-81
2022/01/01 05:53:04;;;;;;;25.13;12.68;;;;;;;13.45;68.96;98210.13;6056233;23;20269;-82
2022/01/01 05:55:29;;;;;;;20.90;11.73;;;;;;;13.44;69.06;98217.19;6005236;23;20218;-81
2022/01/01 05:57:54;;;;;;;17.58;11.13;;;;;;;13.38;68.95;98205.03;6004581;23;20243;-82
2022/01/01 06:00:20;;;;;;;25.17;11.18;;;;;;;13.27;69.01;98203.28;5970133;23;20297;-81
2022/01/01 06:02:46;;;;;;;20.98;10.32;;;;;;;13.34;68.82;98198.69;6004430;23;20172;-82
2022/01/01 06:05:11;;;;;;;15.27;9.40;;;;;;;13.21;69.21;98194.56;6004530;23;20231;-82
2022/01/01 06:07:38;;;;;;;18.60;10.32;;;;;;;13.24;68.85;98194.06;5970751;23;20267;-81
2022/01/01 06:10:04;;;;;;;22.40;9.50;;;;;;;13.00;69.75;98192.59;5979694;23;20171;-81
2022/01/01 06:12:30;;;;;;;15.38;9.85;;;;;;;13.09;69.80;98192.00;5979861;23;20690;-81
2022/01/01 06:14:55;;;;;;;16.15;9.40;;;;;;;13.23;69.44;98197.72;6003972;23;20178;-82
2022/01/01 06:17:21;;;;;;;17.42;9.38;;;;;;;13.21;69.07;98197.16;6004177;23;20163;-81
2022/01/01 06:19:46;;;;;;;16.08;10.38;;;;;;;13.19;69.72;98193.97;5946702;23;20247;-82
2022/01/01 06:22:13;;;;;;;21.42;9.95;;;;;;;13.13;69.43;98181.06;5994122;23;20603;-82
2022/01/01 06:24:38;;;;;;;21.10;9.63;;;;;;;13.02;69.89;98182.69;5970986;23;20156;-81
2022/01/01 06:27:04;;;;;;;19.33;9.32;;;;;;;13.01;69.20;98174.06;5970004;23;20598;-82
2022/01/01 06:29:29;;;;;;;22.98;10.35;;;;;;;12.87;69.48;98175.41;5994649;23;20113;-81
2022/01/01 06:31:54;;;;;;;28.55;9.02;;;;;;;12.79;70.13;98184.38;5994101;23;20203;-81
2022/01/01 06:34:20;;;;;;;30.92;9.00;;;;;;;12.87;69.91;98181.41;5946788;23;20195;-81
2022/01/01 06:36:45;;;;;;;15.07;8.70;;;;;;;13.00;69.12;98190.78;5979631;23;20190;-81
2022/01/01 06:39:11;;;;;;;16.60;8.98;;;;;;;12.97;69.42;98193.06;6003498;23;20294;-81
2022/01/01 06:41:36;;;;;;;17.48;8.65;;;;;;;12.95;69.63;98189.91;6004008;23;20141;-81
2022/01/01 06:44:01;;;;;;;14.02;7.93;;;;;;;13.07;69.74;98193.25;6003426;23;20264;-80
2022/01/01 06:46:27;;;;;;;21.10;8.88;;;;;;;13.07;69.43;98201.09;6003259;23;20171;-80
2022/01/01 06:48:52;;;;;;;16.42;9.27;;;;;;;13.00;69.79;98198.63;5946836;23;20251;-82
2022/01/01 06:51:18;;;;;;;22.13;9.43;;;;;;;13.01;68.88;98196.81;5969329;23;20283;-80
2022/01/01 06:53:43;;;;;;;14.93;9.85;;;;;;;13.08;69.46;98202.69;5953047;23;20147;-81
2022/01/01 06:56:09;;;;;;;22.33;9.70;;;;;;;13.01;69.68;98204.66;6032234;23;20589;-80
2022/01/01 06:58:36;;;;;;;17.73;8.85;;;;;;;13.02;69.41;98208.84;5998473;23;20178;-80
2022/01/01 07:01:01;;;;;;;15.18;7.95;;;;;;;13.07;69.32;98204.50;5974415;23;20182;-81
2022/01/01 07:03:27;;;;;;;15.85;9.07;;;;;;;13.12;69.18;98211.63;6032932;23;20253;-81
2022/01/01 07:05:52;;;;;;;14.18;9.18;;;;;;;13.11;69.47;98204.84;6032015;23;20261;-80
2022/01/01 07:08:18;;;;;;;15.00;9.32;;;;;;;13.05;69.58;98203.16;5998424;23;20182;-80
2022/01/01 07:10:44;;;;;;;14.48;8.43;;;;;;;13.06;69.46;98210.75;6031879;23;20259;-81
2022/01/01 07:13:14;;;;;;;17.48;8.88;;;;;;;12.99;69.93;98222.38;5975066;23;20170;-81
2022/01/01 07:15:39;;;;;;;13.38;8.63;;;;;;;13.11;69.32;98218.69;5974639;23;20229;-81
2022/01/01 07:18:05;;;;;;;15.35;8.23;;;;;;;13.16;69.10;98223.22;5974993;23;20147;-81
2022/01/01 07:20:31;;;;;;;17.55;9.57;;;;;;;13.18;69.43;98226.41;6031673;23;20148;-81
2022/01/01 07:22:56;;;;;;;37.28;9.82;;;;;;;12.99;69.75;98228.41;5998458;23;20183;-80
2022/01/01 07:25:21;;;;;;;23.70;9.63;;;;;;;13.04;69.54;98231.13;6032205;23;20148;-81
2022/01/01 07:27:47;;;;;;;16.50;9.25;;;;;;;13.02;69.75;98234.97;6031804;23;20259;-81
2022/01/01 07:30:13;;;;;;;16.00;9.30;;;;;;;13.15;69.32;98237.31;6031557;23;20234;-81
2022/01/01 07:32:43;;;;;;;16.02;8.80;;;;;;;13.13;69.41;98236.75;5998375;23;20166;-81
2022/01/01 07:35:09;;;;;;;14.25;8.75;;;;;;;13.14;69.67;98240.94;5974236;23;20293;-81
2022/01/01 07:37:35;;;;;;;14.32;8.60;;;;;;;13.22;69.26;98251.03;5998055;23;20238;-80
2022/01/01 07:40:00;;;;;;;17.75;9.20;;;;;;;13.22;69.42;98253.66;6031673;23;20194;-81
2022/01/01 07:42:26;;;;;;;18.65;9.95;;;;;;;13.15;69.42;98252.22;5998670;23;20539;-81
2022/01/01 07:44:51;;;;;;;14.63;8.32;;;;;;;13.20;69.30;98257.53;6021809;23;20174;-81
2022/01/01 07:47:16;;;;;;;18.75;9.75;;;;;;;13.12;69.35;98258.69;6031579;23;20179;-80
2022/01/01 07:49:42;;;;;;;20.70;11.05;;;;;;;13.24;69.29;98263.88;6031860;23;20729;-80
2022/01/01 07:52:08;;;;;;;17.27;9.55;;;;;;;13.24;69.31;98269.91;6007353;23;20653;-80
2022/01/01 07:54:34;;;;;;;16.83;10.10;;;;;;;13.21;69.28;98270.38;6005561;23;20183;-81
2022/01/01 07:56:59;;;;;;;16.85;9.35;;;;;;;13.25;69.25;98274.13;5969158;23;20259;-81
2022/01/01 07:59:24;;;;;;;16.92;9.82;;;;;;;13.25;69.22;98279.34;5968703;23;20630;-81
2022/01/01 08:01:50;;;;;;;16.85;9.18;;;;;;;13.14;69.51;98269.72;5979363;23;20178;-80
2022/01/01 08:04:15;;;;;;;13.32;8.55;;;;;;;13.23;69.68;98268.34;5978745;23;20179;-80
2022/01/01 08:06:41;;;;;;;17.40;9.52;;;;;;;13.20;69.13;98263.56;6002851;23;20191;-81
2022/01/01 08:09:06;;;;;;;15.23;8.52;;;;;;;13.27;69.70;98266.81;6002232;23;20261;-80
2022/01/01 08:11:31;;;;;;;15.55;8.85;;;;;;;13.35;69.37;98262.25;5993231;23;20231;-81
2022/01/01 08:13:57;;;;;;;18.20;9.18;;;;;;;13.38;69.26;98256.56;6002860;23;20192;-81
2022/01/01 08:16:22;;;;;;;16.13;9.85;;;;;;;13.36;69.63;98263.88;5979061;23;20346;-81
2022/01/01 08:18:48;;;;;;;17.58;9.73;;;;;;;13.43;68.83;98261.88;5945981;23;20607;-80
2022/01/01 08:21:13;;;;;;;17.95;8.88;;;;;;;13.44;69.00;98266.09;5945606;23;20172;-81
2022/01/01 08:23:39;;;;;;;18.05;9.20;;;;;;;13.51;69.22;98264.13;6003120;23;20172;-80
2022/01/01 08:26:04;;;;;;;15.23;8.45;;;;;;;13.57;68.73;98265.81;5969254;23;20591;-80
2022/01/01 08:28:30;;;;;;;14.65;8.80;;;;;;;13.53;68.75;98262.06;6003034;23;20358;-80
2022/01/01 08:30:55;;;;;;;13.63;8.13;;;;;;;13.57;68.88;98265.81;6002391;23;20179;-80
2022/01/01 08:33:21;;;;;;;17.90;9.15;;;;;;;13.54;69.22;98263.66;5978547;23;20351;-81
2022/01/01 08:35:46;;;;;;;14.57;8.68;;;;;;;13.60;69.11;98264.53;5968612;23;20187;-80
2022/01/01 08:38:13;;;;;;;16.02;8.88;;;;;;;13.60;69.47;98272.38;6002847;23;20160;-80
2022/01/01 08:40:39;;;;;;;14.85;8.55;;;;;;;13.60;68.96;98267.94;5978981;23;20604;-81
2022/01/01 08:43:04;;;;;;;12.20;8.07;;;;;;;13.58;69.20;98266.59;5968895;23;20265;-80
2022/01/01 08:45:30;;;;;;;17.25;8.32;;;;;;;13.66;68.97;98271.44;5969213;23;20277;-80
2022/01/01 08:47:55;;;;;;;13.90;7.65;;;;;;;13.59;68.77;98274.22;6004777;23;20633;-80
2022/01/01 08:50:21;;;;;;;12.48;7.60;;;;;;;13.61;69.47;98268.75;5946841;23;20214;-80
2022/01/01 08:52:46;;;;;;;13.15;7.18;;;;;;;13.65;69.27;98269.84;5947471;23;20426;-81
2022/01/01 08:55:12;;;;;;;16.00;8.75;;;;;;;13.71;69.15;98262.88;6024289;23;20178;-80
2022/01/01 08:57:37;;;;;;;11.82;7.03;;;;;;;13.76;69.22;98258.53;5970745;23;20174;-80
2022/01/01 09:00:09;;;;;;;14.40;8.05;;;;;;;13.69;68.91;98257.84;5994393;23;20335;-80
2022/01/01 09:02:35;;;;;;;12.27;6.88;;;;;;;13.82;69.26;98254.94;5994592;23;20261;-81
2022/01/01 09:05:00;;;;;;;12.15;7.85;;;;;;;13.86;68.53;98250.81;6004404;23;20170;-81
2022/01/01 09:07:28;;;;;;;13.32;7.22;;;;;;;13.92;69.37;98248.28;6028499;23;20716;-80
2022/01/01 09:10:01;;;;;;;11.52;6.95;;;;;;;13.86;68.86;98263.91;6028746;23;20621;-80
2022/01/01 09:12:29;;;;;;;14.05;7.00;;;;;;;13.96;68.24;98257.25;6028491;23;20194;-80
2022/01/01 09:14:55;;;;;;;12.05;6.72;;;;;;;14.04;68.88;98260.25;6028451;23;20571;-81
2022/01/01 09:17:21;;;;;;;12.60;6.65;;;;;;;14.14;68.87;98254.38;5994660;23;20326;-80
2022/01/01 09:19:47;;;;;;;15.45;7.40;;;;;;;14.03;68.73;98250.81;5994812;23;20150;-81
2022/01/01 09:22:13;;;;;;;10.65;6.70;;;;;;;14.13;68.94;98252.00;6028254;23;20531;-80
2022/01/01 09:24:38;;;;;;;11.18;6.63;;;;;;;14.18;68.75;98244.97;5994603;23;20189;-81
2022/01/01 09:27:04;;;;;;;10.73;6.28;;;;;;;14.23;68.72;98249.50;5994761;23;20261;-81
2022/01/01 09:29:30;;;;;;;12.35;6.70;;;;;;;14.29;68.71;98247.75;5970616;23;20222;-81
2022/01/01 09:31:55;;;;;;;10.35;6.32;;;;;;;14.31;68.88;98253.53;5994899;23;20269;-80
2022/01/01 09:34:20;;;;;;;8.35;5.78;;;;;;;14.35;68.48;98249.41;6004122;23;20186;-80
2022/01/01 09:36:47;;;;;;;8.43;6.18;;;;;;;14.39;68.68;98245.25;6028554;23;20660;-81
2022/01/01 09:39:13;;;;;;;8.50;5.60;;;;;;;14.47;68.56;98252.69;6028437;23;20218;-81
2022/01/01 09:41:41;;;;;;;11.25;6.00;;;;;;;14.41;68.40;98249.25;6004228;23;20253;-81
2022/01/01 09:44:12;;;;;;;8.52;5.85;;;;;;;14.43;68.02;98254.22;6018993;23;20182;-81
2022/01/01 09:46:39;;;;;;;10.32;5.82;;;;;;;14.57;68.23;98267.78;6028404;23;20616;-82
2022/01/01 09:49:04;;;;;;;9.38;5.35;;;;;;;14.58;67.96;98259.69;5994200;23;20284;-82
2022/01/01 09:51:29;;;;;;;8.65;5.53;;;;;;;14.56;67.82;98268.78;5994333;23;20341;-81
2022/01/01 09:53:55;;;;;;;7.65;5.15;;;;;;;14.69;68.10;98265.84;6025549;23;20263;-81
2022/01/01 09:56:20;;;;;;;9.93;5.30;;;;;;;14.70;68.00;98254.34;5970300;23;20235;-82
2022/01/01 09:58:46;;;;;;;7.97;5.70;;;;;;;14.73;67.84;98253.84;5969370;23;20346;-82
2022/01/01 10:01:11;;;;;;;6.63;4.85;;;;;;;14.76;67.97;98255.97;6004168;23;20167;-81
2022/01/01 10:03:40;;;;;;;9.02;5.05;;;;;;;14.72;68.07;98251.44;6003965;23;20203;-81
2022/01/01 10:06:12;;;;;;;9.88;5.50;;;;;;;14.91;68.02;98249.34;6004290;23;20694;-82
2022/01/01 10:08:47;;;;;;;8.43;4.90;;;;;;;14.77;67.55;98248.88;6005151;23;20288;-82
2022/01/01 10:11:16;;;;;;;10.98;6.35;;;;;;;14.67;67.53;98240.91;5971564;23;20080;-82
2022/01/01 10:13:42;;;;;;;8.32;5.30;;;;;;;14.88;67.39;98242.72;5971158;23;20223;-82
2022/01/01 10:16:09;;;;;;;8.63;4.60;;;;;;;14.90;67.50;98240.66;5970706;23;20678;-82
2022/01/01 10:18:40;;;;;;;8.18;4.65;;;;;;;14.78;67.54;98253.09;6004876;23;20290;-83
2022/01/01 10:21:28;;;;;;;8.65;4.28;;;;;;;14.98;67.64;98244.69;5971167;23;20643;-83
2022/01/01 10:23:56;;;;;;;6.95;4.22;;;;;;;14.97;67.39;98245.72;5995266;23;20259;-82
2022/01/01 10:29:41;;;;;;;7.13;4.13;;;;;;;15.09;66.75;98241.13;5975207;23;20193;-82
2022/01/01 10:32:10;;;;;;;;;;;;;;;14.87;67.67;98240.34;6016719;23;20583;-83
2022/01/01 10:34:46;;;;;;;6.22;4.28;;;;;;;15.06;66.99;98233.75;5948231;23;20168;-83
2022/01/01 10:37:13;;;;;;;4.47;3.42;;;;;;;15.18;66.37;98238.84;5981320;23;20516;-83
2022/01/01 10:39:54;;;;;;;4.68;3.38;;;;;;;15.12;66.38;98247.72;6005202;23;20361;-83
2022/01/01 10:42:19;;;;;;;6.78;3.33;;;;;;;15.19;66.89;98244.91;5972212;23;20666;-83
2022/01/01 10:44:53;;;;;;;5.07;3.53;;;;;;;15.10;65.41;98249.78;5972149;23;20258;-83
2022/01/01 10:47:30;;;;;;;4.93;2.95;;;;;;;15.16;65.95;98244.34;6005679;23;20251;-84
2022/01/01 10:52:36;;;;;;;5.82;3.58;;;;;;;15.37;65.62;98241.91;5974273;23;20187;-83
2022/01/01 10:55:06;;;;;;;5.07;3.35;;;;;;;15.33;65.56;98238.19;6014870;23;20170;-84
2022/01/01 10:57:41;;;;;;;5.40;4.10;;;;;;;15.32;65.91;98244.50;6006694;23;20305;-84
2022/01/01 11:00:07;;;;;;;5.97;3.65;;;;;;;15.47;65.81;98239.38;5973048;23;20624;-84
2022/01/01 11:02:34;;;;;;;3.85;3.20;;;;;;;15.52;65.29;98238.63;6033005;23;20185;-83
2022/01/01 11:05:00;;;;;;;6.97;3.30;;;;;;;15.48;65.40;98235.72;6029874;23;20233;-83
2022/01/01 11:07:28;;;;;;;5.82;3.72;;;;;;;15.39;65.51;98237.22;6019165;23;20261;-83
2022/01/01 11:09:56;;;;;;;4.75;3.60;;;;;;;15.42;65.65;98247.22;5971474;23;20177;-83
2022/01/01 11:12:23;;;;;;;3.45;2.85;;;;;;;15.48;66.09;98237.56;5994758;23;20178;-83
2022/01/01 11:14:49;;;;;;;5.53;3.55;;;;;;;15.58;65.76;98236.84;6029304;23;20215;-83
2022/01/01 11:17:16;;;;;;;5.53;3.78;;;;;;;15.59;65.59;98225.28;6028888;23;20578;-83
2022/01/01 11:19:41;;;;;;;4.70;2.83;;;;;;;15.67;66.20;98230.09;6029840;23;20127;-83
2022/01/01 11:22:07;;;;;;;4.20;3.30;;;;;;;15.66;65.88;98218.81;5996123;23;20170;-83
2022/01/01 11:24:33;;;;;;;5.05;2.85;;;;;;;15.81;66.04;98226.00;5994472;23;20724;-83
2022/01/01 11:26:59;;;;;;;6.38;2.85;;;;;;;15.87;65.75;98217.13;5995675;23;20260;-83
2022/01/01 11:29:24;;;;;;;5.50;2.78;;;;;;;15.89;65.76;98216.88;5994460;23;20234;-83